createdAt,value
2023-01-28T00:00:55.692Z,9.40
2023-01-28T00:03:26.339Z,9.57
2023-01-28T00:05:55.151Z,9.61
2023-01-28T00:08:25.177Z,9.64
2023-01-28T00:10:53.430Z,9.63
2023-01-28T00:13:23.314Z,9.61
2023-01-28T00:15:58.374Z,9.62
2023-01-28T00:18:27.880Z,9.55
2023-01-28T00:21:00.118Z,9.52
2023-01-28T00:23:36.421Z,9.50
2023-01-28T00:26:05.617Z,9.35
2023-01-28T00:28:33.837Z,9.54
2023-01-28T00:31:11.573Z,9.55
2023-01-28T00:33:39.813Z,9.54
2023-01-28T00:36:15.857Z,9.51
2023-01-28T00:38:44.295Z,9.51
2023-01-28T00:41:15.354Z,9.42
2023-01-28T00:43:43.560Z,9.25
2023-01-28T00:46:14.215Z,9.46
2023-01-28T00:48:43.446Z,9.40
2023-01-28T00:51:12.141Z,9.47
2023-01-28T00:53:42.410Z,9.50
2023-01-28T00:56:11.653Z,9.51
2023-01-28T00:58:39.620Z,9.48
2023-01-28T01:01:10.595Z,9.47
2023-01-28T01:03:40.057Z,9.46
2023-01-28T01:06:12.977Z,9.43
2023-01-28T01:11:24.824Z,9.39
2023-01-28T01:13:54.982Z,9.42
2023-01-28T01:16:23.227Z,9.35
2023-01-28T01:18:53.340Z,9.40
2023-01-28T01:21:24.809Z,9.35
2023-01-28T01:23:53.223Z,9.40
2023-01-28T01:26:23.602Z,9.32
2023-01-28T01:28:52.605Z,9.35
2023-01-28T01:31:22.767Z,9.33
2023-01-28T01:33:52.323Z,9.30
2023-01-28T01:36:22.263Z,9.26
2023-01-28T01:38:54.531Z,9.24
2023-01-28T01:41:28.211Z,9.14
2023-01-28T01:43:57.252Z,9.30
2023-01-28T01:46:29.234Z,9.28
2023-01-28T01:48:57.368Z,9.11
2023-01-28T01:51:29.103Z,9.25
2023-01-28T01:53:57.112Z,9.28
2023-01-28T01:56:36.375Z,9.22
2023-01-28T01:59:05.987Z,9.26
2023-01-28T02:01:33.981Z,9.24
2023-01-28T02:04:07.159Z,9.20
2023-01-28T02:06:43.721Z,9.20
2023-01-28T02:09:26.879Z,9.18
2023-01-28T02:12:04.354Z,9.01
2023-01-28T02:14:33.467Z,9.14
2023-01-28T02:17:01.712Z,9.04
2023-01-28T02:19:34.593Z,9.06
2023-01-28T02:22:09.053Z,9.12
2023-01-28T02:24:53.068Z,9.16
2023-01-28T02:27:29.112Z,9.11
2023-01-28T02:30:01.067Z,9.13
2023-01-28T02:32:33.004Z,9.14
2023-01-28T02:35:03.438Z,9.19
2023-01-28T02:37:36.134Z,9.19
2023-01-28T02:40:09.610Z,9.06
2023-01-28T02:42:38.657Z,9.24
2023-01-28T02:45:15.117Z,9.25
2023-01-28T02:47:58.709Z,9.27
2023-01-28T02:50:33.002Z,9.24
2023-01-28T02:53:26.111Z,9.26
2023-01-28T02:55:57.078Z,9.17
2023-01-28T02:58:29.020Z,9.23
2023-01-28T03:01:18.191Z,9.29
2023-01-28T03:03:51.599Z,9.31
2023-01-28T03:06:21.924Z,9.32
2023-01-28T03:09:10.230Z,9.30
2023-01-28T03:11:58.356Z,9.25
2023-01-28T03:14:43.762Z,9.28
2023-01-28T03:17:31.195Z,9.24
2023-01-28T03:20:17.732Z,9.22
2023-01-28T03:23:07.492Z,9.29
2023-01-28T03:25:56.346Z,9.29
2023-01-28T03:28:41.702Z,9.24
2023-01-28T03:31:29.725Z,9.31
2023-01-28T03:34:19.192Z,9.31
2023-01-28T03:36:55.479Z,9.34
2023-01-28T03:39:46.593Z,9.39
2023-01-28T03:42:15.642Z,9.40
2023-01-28T03:44:56.084Z,9.44
2023-01-28T03:47:26.281Z,9.46
2023-01-28T03:49:57.644Z,9.47
2023-01-28T03:52:31.053Z,9.37
2023-01-28T03:55:20.740Z,9.39
2023-01-28T03:57:48.798Z,9.20
2023-01-28T04:00:20.165Z,9.24
2023-01-28T04:05:36.779Z,9.09
2023-01-28T04:08:05.145Z,8.97
2023-01-28T04:10:44.297Z,8.81
2023-01-28T04:13:34.710Z,8.72
2023-01-28T04:16:03.631Z,8.64
2023-01-28T04:18:35.437Z,8.55
2023-01-28T04:21:10.808Z,8.39
2023-01-28T04:23:40.344Z,8.41
2023-01-28T04:26:12.954Z,8.37
2023-01-28T04:28:40.971Z,8.24
2023-01-28T04:31:09.412Z,8.25
2023-01-28T04:33:57.479Z,8.03
2023-01-28T04:36:47.079Z,8.13
2023-01-28T04:39:52.748Z,8.08
2023-01-28T04:42:22.978Z,8.06
2023-01-28T04:45:05.749Z,8.06
2023-01-28T04:47:54.009Z,8.04
2023-01-28T04:50:40.761Z,8.01
2023-01-28T04:53:36.160Z,8.01
2023-01-28T04:56:09.153Z,8.02
2023-01-28T04:58:40.925Z,8.04
2023-01-28T05:01:14.413Z,7.99
2023-01-28T05:03:42.499Z,8.11
2023-01-28T05:06:14.411Z,7.99
2023-01-28T05:08:46.318Z,8.10
2023-01-28T05:11:20.263Z,8.04
2023-01-28T05:13:53.387Z,8.08
2023-01-28T05:16:21.485Z,7.91
2023-01-28T05:18:51.509Z,8.05
2023-01-28T05:21:21.221Z,8.08
2023-01-28T05:24:01.053Z,8.09
2023-01-28T05:26:29.724Z,8.12
2023-01-28T05:28:57.839Z,8.02
2023-01-28T05:31:26.694Z,8.17
2023-01-28T05:33:54.911Z,8.20
2023-01-28T05:36:26.422Z,8.21
2023-01-28T05:38:58.591Z,8.22
2023-01-28T05:41:35.423Z,8.18
2023-01-28T05:44:04.597Z,8.19
2023-01-28T05:46:52.760Z,8.27
2023-01-28T05:49:56.502Z,8.28
2023-01-28T05:52:37.056Z,8.27
2023-01-28T05:55:09.748Z,8.23
2023-01-28T05:57:37.829Z,8.26
2023-01-28T06:00:10.961Z,8.29
2023-01-28T06:02:46.873Z,8.32
2023-01-28T06:05:16.807Z,8.32
2023-01-28T06:07:50.979Z,8.37
2023-01-28T06:10:20.471Z,8.44
2023-01-28T06:12:52.612Z,8.46
2023-01-28T06:15:42.532Z,8.46
2023-01-28T06:18:33.813Z,8.41
2023-01-28T06:21:01.791Z,8.42
2023-01-28T06:23:29.742Z,8.45
2023-01-28T06:25:59.129Z,8.40
2023-01-28T06:28:27.075Z,8.40
2023-01-28T06:30:55.338Z,8.40
2023-01-28T06:33:25.170Z,8.38
2023-01-28T06:35:53.164Z,8.37
2023-01-28T06:38:22.645Z,8.33
2023-01-28T06:40:53.170Z,8.09
2023-01-28T06:43:27.770Z,8.28
2023-01-28T06:45:58.147Z,8.33
2023-01-28T06:48:27.790Z,8.30
2023-01-28T06:50:57.317Z,8.26
2023-01-28T06:53:25.331Z,8.24
2023-01-28T06:55:53.435Z,8.30
2023-01-28T06:58:22.878Z,8.22
2023-01-28T07:00:52.062Z,8.19
2023-01-28T07:03:22.761Z,8.10
2023-01-28T07:05:51.029Z,8.15
2023-01-28T07:08:19.160Z,8.16
2023-01-28T07:10:49.663Z,8.15
2023-01-28T07:13:17.802Z,7.88
2023-01-28T07:15:47.185Z,8.09
2023-01-28T07:18:15.168Z,8.08
2023-01-28T07:20:43.522Z,8.11
2023-01-28T07:23:14.502Z,8.14
2023-01-28T07:25:42.517Z,8.15
2023-01-28T07:28:13.417Z,8.11
2023-01-28T07:30:43.905Z,8.19
2023-01-28T07:33:13.213Z,8.19
2023-01-28T07:35:41.169Z,8.08
2023-01-28T07:38:11.363Z,8.24
2023-01-28T07:40:42.530Z,8.18
2023-01-28T07:43:10.683Z,8.20
2023-01-28T07:45:40.560Z,8.01
2023-01-28T07:48:09.383Z,8.17
2023-01-28T07:50:40.217Z,8.20
2023-01-28T07:53:10.772Z,8.16
2023-01-28T07:55:38.927Z,8.09
2023-01-28T07:58:07.775Z,8.23
2023-01-28T08:00:36.736Z,8.26
2023-01-28T08:03:06.254Z,8.16
2023-01-28T08:05:41.792Z,8.24
2023-01-28T08:08:10.034Z,8.24
2023-01-28T08:10:38.152Z,8.22
2023-01-28T08:13:10.682Z,8.37
2023-01-28T08:15:39.315Z,8.32
2023-01-28T08:18:07.858Z,8.39
2023-01-28T08:20:36.310Z,8.38
2023-01-28T08:23:09.993Z,8.31
2023-01-28T08:25:37.966Z,8.38
2023-01-28T08:28:08.227Z,8.32
2023-01-28T08:30:38.037Z,8.40
2023-01-28T08:33:06.319Z,8.42
2023-01-28T08:35:34.285Z,8.36
2023-01-28T08:38:02.830Z,8.46
2023-01-28T08:40:32.384Z,8.44
2023-01-28T08:43:02.465Z,8.40
2023-01-28T08:45:32.894Z,8.39
2023-01-28T08:48:02.361Z,8.29
2023-01-28T08:50:33.653Z,8.39
2023-01-28T08:53:02.477Z,8.54
2023-01-28T08:55:32.863Z,8.51
2023-01-28T08:58:03.231Z,8.56
2023-01-28T09:00:31.333Z,8.60
2023-01-28T09:02:59.335Z,8.64
2023-01-28T09:05:27.453Z,8.67
2023-01-28T09:07:58.457Z,8.73
2023-01-28T09:10:33.921Z,8.74
2023-01-28T09:13:14.373Z,8.76
2023-01-28T09:15:42.542Z,8.76
2023-01-28T09:18:11.920Z,8.74
2023-01-28T09:20:40.073Z,8.84
2023-01-28T09:23:08.090Z,8.77
2023-01-28T09:25:36.373Z,8.86
2023-01-28T09:28:07.986Z,8.88
2023-01-28T09:30:37.714Z,8.93
2023-01-28T09:33:08.722Z,8.93
2023-01-28T09:35:36.952Z,9.02
2023-01-28T09:38:05.768Z,9.07
2023-01-28T09:40:37.967Z,9.21
2023-01-28T09:43:26.902Z,9.23
2023-01-28T09:45:56.882Z,9.22
2023-01-28T09:48:30.707Z,9.27
2023-01-28T09:50:58.757Z,9.35
2023-01-28T09:53:32.419Z,9.40
2023-01-28T09:56:04.931Z,9.48
2023-01-28T09:58:36.902Z,9.32
2023-01-28T10:01:33.216Z,9.60
2023-01-28T10:04:11.085Z,9.61
2023-01-28T10:06:49.376Z,9.71
2023-01-28T10:09:33.130Z,9.80
2023-01-28T10:15:24.012Z,9.88
2023-01-28T10:17:53.630Z,9.91
2023-01-28T10:20:28.889Z,9.87
2023-01-28T10:23:02.652Z,9.70
2023-01-28T10:25:32.815Z,9.89
2023-01-28T10:28:00.970Z,9.86
2023-01-28T10:30:35.463Z,9.85
2023-01-28T10:33:10.257Z,9.91
2023-01-28T10:35:39.862Z,10.02
2023-01-28T10:38:10.016Z,10.13
2023-01-28T10:40:48.204Z,10.22
2023-01-28T10:43:17.523Z,10.23
2023-01-28T10:45:53.222Z,10.31
2023-01-28T10:48:22.769Z,10.31
2023-01-28T10:50:51.472Z,10.38
2023-01-28T10:53:22.142Z,10.39
2023-01-28T10:55:53.085Z,10.44
2023-01-28T10:58:23.710Z,10.44
2023-01-28T11:00:55.787Z,10.49
2023-01-28T11:03:27.401Z,10.46
2023-01-28T11:05:56.173Z,10.56
2023-01-28T11:08:24.885Z,10.59
2023-01-28T11:10:53.859Z,10.49
2023-01-28T11:13:31.372Z,10.62
2023-01-28T11:16:05.885Z,10.51
2023-01-28T11:18:35.485Z,10.49
2023-01-28T11:21:37.859Z,10.59
2023-01-28T11:24:24.798Z,10.51
2023-01-28T11:29:51.971Z,10.72
2023-01-28T11:32:26.497Z,10.74
2023-01-28T11:35:00.055Z,10.77
2023-01-28T11:37:31.735Z,10.80
2023-01-28T11:40:21.449Z,10.81
2023-01-28T11:42:54.474Z,10.79
2023-01-28T11:45:28.063Z,10.76
2023-01-28T11:48:04.358Z,10.80
2023-01-28T11:50:39.026Z,10.81
2023-01-28T11:53:17.128Z,10.80
2023-01-28T11:55:55.520Z,10.87
2023-01-28T11:58:25.334Z,10.88
2023-01-28T12:01:03.867Z,10.93
2023-01-28T12:03:54.643Z,10.99
2023-01-28T12:06:33.714Z,11.03
2023-01-28T12:09:10.990Z,10.94
2023-01-28T12:12:06.089Z,10.86
2023-01-28T12:14:38.662Z,11.03
2023-01-28T12:17:21.006Z,11.03
2023-01-28T12:20:01.411Z,11.10
2023-01-28T12:23:01.528Z,11.09
2023-01-28T12:25:37.597Z,10.97
2023-01-28T12:28:17.419Z,11.06
2023-01-28T12:30:55.828Z,11.10
2023-01-28T12:33:44.595Z,11.06
2023-01-28T12:36:24.253Z,11.03
2023-01-28T12:38:58.033Z,11.00
2023-01-28T12:41:32.127Z,11.03
2023-01-28T12:44:07.394Z,10.93
2023-01-28T12:46:43.905Z,11.03
2023-01-28T12:49:16.170Z,11.04
2023-01-28T12:52:00.212Z,11.08
2023-01-28T12:54:30.411Z,11.17
2023-01-28T12:56:59.176Z,11.13
2023-01-28T12:59:31.592Z,11.23
2023-01-28T13:02:07.365Z,11.22
2023-01-28T13:04:40.005Z,11.28
2023-01-28T13:07:12.261Z,11.22
2023-01-28T13:09:50.794Z,11.28
2023-01-28T13:12:18.976Z,11.25
2023-01-28T13:14:52.659Z,11.26
2023-01-28T13:17:30.180Z,11.26
2023-01-28T13:19:59.766Z,11.24
2023-01-28T13:22:39.714Z,11.21
2023-01-28T13:25:21.744Z,11.22
2023-01-28T13:27:58.552Z,11.20
2023-01-28T13:30:32.824Z,11.21
2023-01-28T13:33:05.726Z,11.20
2023-01-28T13:35:35.599Z,11.18
2023-01-28T13:38:13.437Z,11.29
2023-01-28T13:40:42.952Z,11.27
2023-01-28T13:43:28.039Z,11.33
2023-01-28T13:45:58.339Z,11.28
2023-01-28T13:49:06.278Z,11.43
2023-01-28T13:51:34.809Z,11.46
2023-01-28T13:54:07.412Z,11.43
2023-01-28T13:56:42.359Z,11.58
2023-01-28T13:59:22.946Z,11.51
2023-01-28T14:02:19.662Z,11.64
2023-01-28T14:05:05.680Z,11.57
2023-01-28T14:08:07.387Z,11.72
2023-01-28T14:10:44.192Z,11.71
2023-01-28T14:13:39.801Z,11.73
2023-01-28T14:16:26.723Z,11.74
2023-01-28T14:18:54.874Z,11.62
2023-01-28T14:21:23.107Z,11.76
2023-01-28T14:23:51.863Z,11.65
2023-01-28T14:26:35.157Z,11.75
2023-01-28T14:29:09.242Z,11.71
2023-01-28T14:31:41.540Z,11.70
2023-01-28T14:34:13.483Z,11.77
2023-01-28T14:36:44.469Z,11.83
2023-01-28T14:39:26.415Z,11.86
2023-01-28T14:41:57.711Z,11.88
2023-01-28T14:44:30.328Z,11.92
2023-01-28T14:47:20.122Z,11.84
2023-01-28T14:50:00.594Z,11.96
2023-01-28T14:52:43.993Z,11.97
2023-01-28T14:55:19.845Z,11.98
2023-01-28T14:57:53.344Z,11.90
2023-01-28T15:00:24.559Z,11.99
2023-01-28T15:02:52.689Z,11.90
2023-01-28T15:05:22.286Z,12.00
2023-01-28T15:07:50.418Z,11.98
2023-01-28T15:10:22.207Z,11.96
2023-01-28T15:12:55.338Z,11.93
2023-01-28T15:15:34.822Z,11.83
2023-01-28T15:18:04.631Z,11.87
2023-01-28T15:20:33.858Z,11.93
2023-01-28T15:23:03.301Z,11.83
2023-01-28T15:25:40.323Z,11.89
2023-01-28T15:28:27.307Z,11.88
2023-01-28T15:30:55.614Z,11.69
2023-01-28T15:33:31.450Z,11.83
2023-01-28T15:36:04.629Z,11.86
2023-01-28T15:38:35.701Z,11.80
2023-01-28T15:41:04.183Z,11.82
2023-01-28T15:43:37.208Z,11.73
2023-01-28T15:46:07.848Z,11.80
2023-01-28T15:48:35.950Z,11.78
2023-01-28T15:51:05.561Z,11.68
2023-01-28T15:53:37.867Z,11.70
2023-01-28T15:56:08.891Z,11.69
2023-01-28T15:58:42.344Z,11.65
2023-01-28T16:01:17.654Z,11.62
2023-01-28T16:03:46.255Z,11.60
2023-01-28T16:06:18.508Z,11.55
2023-01-28T16:08:53.461Z,11.56
2023-01-28T16:11:25.888Z,11.57
2023-01-28T16:13:56.697Z,11.60
2023-01-28T16:16:28.168Z,11.60
2023-01-28T16:18:57.186Z,11.52
2023-01-28T16:21:26.403Z,11.58
2023-01-28T16:23:54.982Z,11.52
2023-01-28T16:26:25.167Z,11.54
2023-01-28T16:28:53.256Z,11.60
2023-01-28T16:31:29.832Z,11.55
2023-01-28T16:33:57.986Z,11.56
2023-01-28T16:36:26.016Z,11.55
2023-01-28T16:38:54.037Z,11.55
2023-01-28T16:41:24.583Z,11.45
2023-01-28T16:43:52.787Z,11.49
2023-01-28T16:46:22.423Z,11.34
2023-01-28T16:48:51.982Z,11.29
2023-01-28T16:51:21.365Z,11.47
2023-01-28T16:53:49.843Z,11.27
2023-01-28T16:56:35.947Z,11.46
2023-01-28T16:59:14.000Z,11.46
2023-01-28T17:01:42.111Z,11.44
2023-01-28T17:04:13.804Z,11.39
2023-01-28T17:06:45.682Z,11.42
2023-01-28T17:09:17.196Z,11.44
2023-01-28T17:11:45.226Z,11.40
2023-01-28T17:14:13.537Z,11.20
2023-01-28T17:16:41.691Z,11.34
2023-01-28T17:19:09.992Z,11.34
2023-01-28T17:21:41.879Z,11.16
2023-01-28T17:24:10.072Z,11.29
2023-01-28T17:26:38.270Z,11.30
2023-01-28T17:29:07.092Z,11.29
2023-01-28T17:31:35.473Z,11.26
2023-01-28T17:34:06.851Z,11.25
2023-01-28T17:36:35.159Z,11.25
2023-01-28T17:39:14.470Z,11.13
2023-01-28T17:41:43.753Z,11.24
2023-01-28T17:44:12.400Z,11.25
2023-01-28T17:46:40.782Z,11.24
2023-01-28T17:49:10.272Z,11.19
2023-01-28T17:51:38.301Z,11.18
2023-01-28T17:54:10.624Z,11.24
2023-01-28T17:56:39.615Z,11.23
2023-01-28T17:59:17.532Z,11.21
2023-01-28T18:01:47.557Z,11.20
2023-01-28T18:04:16.575Z,11.22
2023-01-28T18:09:30.335Z,11.12
2023-01-28T18:11:58.834Z,11.24
2023-01-28T18:14:29.527Z,11.21
2023-01-28T18:16:57.674Z,11.18
2023-01-28T18:19:25.962Z,11.19
2023-01-28T18:21:55.060Z,11.19
2023-01-28T18:24:24.199Z,11.04
2023-01-28T18:26:55.467Z,11.18
2023-01-28T18:29:26.628Z,11.12
2023-01-28T18:31:58.007Z,11.09
2023-01-28T18:34:28.452Z,11.16
2023-01-28T18:36:57.420Z,11.15
2023-01-28T18:39:29.550Z,11.13
2023-01-28T18:42:09.578Z,11.15
2023-01-28T18:44:41.521Z,11.03
2023-01-28T18:47:09.822Z,11.06
2023-01-28T18:49:40.321Z,11.11
2023-01-28T18:52:08.339Z,10.97
2023-01-28T18:54:39.449Z,11.15
2023-01-28T18:57:11.394Z,11.14
2023-01-28T18:59:39.346Z,11.14
2023-01-28T19:02:07.429Z,11.12
2023-01-28T19:04:38.251Z,11.07
2023-01-28T19:07:08.239Z,11.14
2023-01-28T19:09:36.520Z,11.15
2023-01-28T19:12:04.789Z,11.10
2023-01-28T19:14:49.113Z,10.99
2023-01-28T19:17:24.793Z,11.12
2023-01-28T19:19:55.317Z,11.12
2023-01-28T19:22:23.345Z,11.11
2023-01-28T19:24:51.553Z,11.01
2023-01-28T19:27:22.183Z,11.12
2023-01-28T19:29:51.753Z,11.11
2023-01-28T19:32:19.768Z,11.12
2023-01-28T19:34:51.673Z,11.13
2023-01-28T19:37:19.743Z,11.14
2023-01-28T19:39:48.100Z,11.10
2023-01-28T19:42:17.390Z,11.00
2023-01-28T19:44:50.347Z,11.15
2023-01-28T19:47:19.816Z,11.13
2023-01-28T19:49:47.840Z,11.13
2023-01-28T19:52:17.981Z,11.11
2023-01-28T19:54:47.757Z,11.07
2023-01-28T19:57:15.971Z,11.01
2023-01-28T19:59:43.894Z,11.07
2023-01-28T20:02:12.967Z,11.07
2023-01-28T20:04:54.859Z,11.04
2023-01-28T20:07:35.403Z,11.04
2023-01-28T20:10:03.600Z,10.96
2023-01-28T20:12:31.763Z,11.04
2023-01-28T20:14:59.751Z,11.02
2023-01-28T20:17:28.594Z,11.00
2023-01-28T20:20:00.591Z,11.02
2023-01-28T20:22:28.749Z,11.03
2023-01-28T20:24:57.380Z,10.84
2023-01-28T20:27:25.538Z,10.98
2023-01-28T20:29:56.441Z,11.00
2023-01-28T20:32:24.479Z,11.02
2023-01-28T20:34:52.744Z,10.94
2023-01-28T20:37:22.175Z,10.88
2023-01-28T20:39:50.179Z,11.06
2023-01-28T20:42:18.106Z,11.10
2023-01-28T20:45:07.060Z,11.12
2023-01-28T20:47:35.079Z,11.12
2023-01-28T20:50:03.227Z,11.14
2023-01-28T20:52:35.046Z,11.11
2023-01-28T20:55:03.027Z,11.12
2023-01-28T20:57:31.042Z,11.11
2023-01-28T20:59:59.245Z,11.10
2023-01-28T21:02:27.510Z,11.10
2023-01-28T21:04:55.559Z,11.09
2023-01-28T21:07:24.994Z,11.08
2023-01-28T21:09:54.358Z,11.07
2023-01-28T21:12:22.330Z,10.94
2023-01-28T21:14:50.558Z,11.03
2023-01-28T21:17:21.623Z,11.03
2023-01-28T21:19:49.732Z,11.04
2023-01-28T21:22:17.690Z,10.95
2023-01-28T21:24:48.996Z,11.01
2023-01-28T21:27:20.589Z,11.02
2023-01-28T21:29:48.799Z,11.03
2023-01-28T21:32:17.626Z,11.06
2023-01-28T21:34:45.776Z,11.03
2023-01-28T21:37:13.764Z,10.85
2023-01-28T21:39:41.864Z,11.07
2023-01-28T21:42:09.787Z,11.06
2023-01-28T21:44:39.669Z,10.96
2023-01-28T21:47:08.133Z,11.01
2023-01-28T21:49:43.495Z,10.92
2023-01-28T21:52:11.707Z,10.99
2023-01-28T21:54:39.633Z,11.03
2023-01-28T21:57:07.604Z,11.03
2023-01-28T21:59:38.323Z,11.05
2023-01-28T22:02:10.223Z,11.04
2023-01-28T22:04:39.249Z,11.03
2023-01-28T22:07:08.158Z,10.91
2023-01-28T22:09:36.665Z,11.07
2023-01-28T22:12:06.899Z,11.04
2023-01-28T22:14:34.963Z,11.11
2023-01-28T22:17:03.113Z,11.08
2023-01-28T22:19:32.722Z,11.03
2023-01-28T22:22:01.922Z,11.10
2023-01-28T22:24:36.156Z,11.12
2023-01-28T22:27:04.166Z,11.13
2023-01-28T22:29:33.046Z,11.12
2023-01-28T22:32:04.413Z,11.14
2023-01-28T22:34:35.589Z,11.14
2023-01-28T22:37:03.747Z,11.14
2023-01-28T22:39:39.915Z,11.17
2023-01-28T22:42:10.779Z,11.19
2023-01-28T22:44:38.872Z,11.18
2023-01-28T22:47:06.812Z,11.20
2023-01-28T22:49:36.175Z,11.07
2023-01-28T22:52:04.118Z,11.21
2023-01-28T22:57:14.210Z,11.22
2023-01-28T22:59:51.256Z,11.24
2023-01-28T23:02:26.963Z,11.25
2023-01-28T23:04:57.614Z,11.23
2023-01-28T23:07:26.615Z,11.23
2023-01-28T23:09:54.870Z,11.14
2023-01-28T23:12:25.147Z,11.03
2023-01-28T23:15:10.916Z,11.20
2023-01-28T23:17:57.066Z,11.20
2023-01-28T23:20:43.012Z,11.19
2023-01-28T23:23:30.334Z,11.19
2023-01-28T23:26:00.376Z,11.14
2023-01-28T23:28:31.892Z,11.10
2023-01-28T23:31:02.386Z,11.08
2023-01-28T23:33:31.093Z,11.20
2023-01-28T23:36:00.447Z,11.08
2023-01-28T23:38:29.546Z,11.11
2023-01-28T23:40:57.472Z,11.14
2023-01-28T23:43:25.491Z,11.17
2023-01-28T23:45:53.417Z,11.05
2023-01-28T23:48:21.405Z,11.21
2023-01-28T23:50:55.456Z,11.13
2023-01-28T23:53:24.947Z,11.24
2023-01-28T23:55:52.898Z,11.25
2023-01-28T23:58:41.862Z,11.23
